Asona — 9GHM — position and weather

sailwx.info

Track history (hours):
 
Tides and Currents Weather Stations Pressure Air Temp Water Temp Dewpoint Dewpoint Depression Visibility Wind Speed Wind Dir Waves Ship Positions

Asona

Last reported at 2018-Jun-16 15:06 UTC. Time now 2018-Jun-20 20:36 UTC.
Position N 05°25' E 000°02'.

Type: Fishing. MMSI: 627576000.

Date/timePositionNaut miles runAvg speedWind from/ knotsBaromVisibWave heightAir tempDewpointWater temp
2018-Jun-16 15:06N 05°25' E 000°02'0 3.4
2018-Jun-16 15:00N 05°25' E 000°03'2 3.5
2018-Jun-16 14:19N 05°26' E 000°05'1 3.4
2018-Jun-16 14:00N 05°27' E 000°05'1 2.1
2018-Jun-16 13:27N 05°28' E 000°06'6 8.1
2018-Jun-16 12:40N 05°33' E 000°03'2 8.7
2018-Jun-16 12:29N 05°35' E 000°03'2 5.3
2018-Jun-16 12:00N 05°37' E 000°01'0 0.0
2018-Jun-16 11:30N 05°37' E 000°01'0 0.0
2018-Jun-16 11:00N 05°37' E 000°01'0 0.0
2018-Jun-16 10:25N 05°37' E 000°01'0 0.0
2018-Jun-16 09:58N 05°37' E 000°01'0 0.0
2018-Jun-16 09:29N 05°37' E 000°01'0 0.0
2018-Jun-16 08:59N 05°37' E 000°01'0 0.0
2018-Jun-16 08:30N 05°37' E 000°01'0 0.0
2018-Jun-16 07:59N 05°37' E 000°01'0 0.0
2018-Jun-16 07:28N 05°37' E 000°01'0 0.0
2018-Jun-16 06:58N 05°37' E 000°01'0 0.0
2018-Jun-16 06:29N 05°37' E 000°01'0 0.0
2018-Jun-16 05:59N 05°37' E 000°01'0 0.0
2018-Jun-16 05:30N 05°37' E 000°01'0 0.0
2018-Jun-16 05:00N 05°37' E 000°01'0 0.0
2018-Jun-16 04:30N 05°37' E 000°01'0 0.0
2018-Jun-16 03:58N 05°37' E 000°01'0 0.0
2018-Jun-16 03:28N 05°37' E 000°01'0 0.0
2018-Jun-16 03:01N 05°37' E 000°01'0 0.0
2018-Jun-16 02:29N 05°37' E 000°01'0 0.0
2018-Jun-16 01:59N 05°37' E 000°01'0 0.0
2018-Jun-16 01:29N 05°37' E 000°01'0 0.0
2018-Jun-16 01:00N 05°37' E 000°01'0 0.0
2018-Jun-16 00:30N 05°37' E 000°01'0 0.0
2018-Jun-16 00:00N 05°37' E 000°01'0 0.0
2018-Jun-15 23:30N 05°37' E 000°01'0 0.0
2018-Jun-15 23:00N 05°37' E 000°01'0 0.0
2018-Jun-15 22:30N 05°37' E 000°01'0 0.0
2018-Jun-15 22:00N 05°37' E 000°01'0 0.0
2018-Jun-15 16:32N 05°37' E 000°01'0 0.0
2018-Jun-15 16:29N 05°37' E 000°01'0 0.0
2018-Jun-15 15:59N 05°37' E 000°01'0 0.0
2018-Jun-15 15:29N 05°37' E 000°01'0 0.0
2018-Jun-15 14:59N 05°37' E 000°01'0 0.0
2018-Jun-15 14:30N 05°37' E 000°01'0 0.0
2018-Jun-15 13:59N 05°37' E 000°01'0 0.0
2018-Jun-15 13:29N 05°37' E 000°01'0 0.0
2018-Jun-15 12:59N 05°37' E 000°01'0 0.0
2018-Jun-15 12:29N 05°37' E 000°01'0 0.0
2018-Jun-15 11:59N 05°37' E 000°01'0 0.0
2018-Jun-15 11:29N 05°37' E 000°01'0 0.0
2018-Jun-15 10:59N 05°37' E 000°01'0 0.0
2018-Jun-15 10:29N 05°37' E 000°01'0 0.0
2018-Jun-15 09:59N 05°37' E 000°01'0 0.0
2018-Jun-15 09:26N 05°37' E 000°01'0 0.0
2018-Jun-15 08:59N 05°37' E 000°01'0 0.0
2018-Jun-15 08:29N 05°37' E 000°01'0 0.0
2018-Jun-15 07:59N 05°37' E 000°01'0 0.0
2018-Jun-15 07:29N 05°37' E 000°01'0 0.0
2018-Jun-15 06:59N 05°37' E 000°01'0 0.0
2018-Jun-15 06:23N 05°37' E 000°01'0 0.0
2018-Jun-15 05:59N 05°37' E 000°01'0 0.0
2018-Jun-15 05:29N 05°37' E 000°01'0 0.0
2018-Jun-15 04:59N 05°37' E 000°01'0 0.0
2018-Jun-15 04:29N 05°37' E 000°01'0 0.0
2018-Jun-15 03:59N 05°37' E 000°01'0 0.0
2018-Jun-15 03:29N 05°37' E 000°01'0 0.0
2018-Jun-15 02:59N 05°37' E 000°01'0 0.0
2018-Jun-15 02:29N 05°37' E 000°01'0 0.0
2018-Jun-15 01:59N 05°37' E 000°01'0 0.0
2018-Jun-15 01:29N 05°37' E 000°01'0 0.0
2018-Jun-15 00:59N 05°37' E 000°01'0 0.0
2018-Jun-15 00:29N 05°37' E 000°01'0 0.0
2018-Jun-14 23:59N 05°37' E 000°01'0 0.0
2018-Jun-14 23:29N 05°37' E 000°01'0 0.0
2018-Jun-14 22:59N 05°37' E 000°01'0 0.0
2018-Jun-14 22:29N 05°37' E 000°01'0 0.0
2018-Jun-14 21:59N 05°37' E 000°01'0 0.0
2018-Jun-14 21:29N 05°37' E 000°01'0 0.0
2018-Jun-14 20:59N 05°37' E 000°01'0 0.0
2018-Jun-14 20:29N 05°37' E 000°01'0 0.0
2018-Jun-14 19:59N 05°37' E 000°01'0 0.0
2018-Jun-14 19:29N 05°37' E 000°01'0 0.0
2018-Jun-14 18:59N 05°37' E 000°01'0 0.0
2018-Jun-14 18:29N 05°37' E 000°01'0 0.0
2018-Jun-14 17:59N 05°37' E 000°01'0 0.0
2018-Jun-14 17:29N 05°37' E 000°01'0 0.0
2018-Jun-14 16:59N 05°37' E 000°01'0 0.0
2018-Jun-14 16:29N 05°37' E 000°01'0 0.0
2018-Jun-14 15:59N 05°37' E 000°01'0 0.0
2018-Jun-14 15:29N 05°37' E 000°01'0 0.0
2018-Jun-14 14:59N 05°37' E 000°01'0 0.0
2018-Jun-14 14:29N 05°37' E 000°01'0 0.0
2018-Jun-14 13:59N 05°37' E 000°01'0 0.0
2018-Jun-14 13:29N 05°37' E 000°01'0 0.0
2018-Jun-14 12:59N 05°37' E 000°01'0 0.0
2018-Jun-14 12:29N 05°37' E 000°01'0 0.0
2018-Jun-14 11:59N 05°37' E 000°01'0 0.0
2018-Jun-14 11:29N 05°37' E 000°01'0 0.0
2018-Jun-14 10:59N 05°37' E 000°01'0 0.0
2018-Jun-14 10:29N 05°37' E 000°01'0 0.0
2018-Jun-14 09:59N 05°37' E 000°01'0 0.0
2018-Jun-14 09:29N 05°37' E 000°01'0 0.0
2018-Jun-14 08:59N 05°37' E 000°01'0 0.0
2018-Jun-14 08:29N 05°37' E 000°01'0 0.0
2018-Jun-14 07:59N 05°37' E 000°01'0 0.0
2018-Jun-14 07:29N 05°37' E 000°01'0 0.0
2018-Jun-14 06:59N 05°37' E 000°01'0 0.0
2018-Jun-14 06:29N 05°37' E 000°01'0 0.0
2018-Jun-14 05:59N 05°37' E 000°01'0 0.0
2018-Jun-14 05:29N 05°37' E 000°01'0 0.0
2018-Jun-14 04:59N 05°37' E 000°01'0 0.0
2018-Jun-14 04:29N 05°37' E 000°01'0 0.0
2018-Jun-14 03:59N 05°37' E 000°01'0 0.0
2018-Jun-14 03:29N 05°37' E 000°01'0 0.0
2018-Jun-14 02:59N 05°37' E 000°01'0 0.0
2018-Jun-14 02:29N 05°37' E 000°01'0 0.0
2018-Jun-14 01:59N 05°37' E 000°01'0 0.0
2018-Jun-14 01:29N 05°37' E 000°01'0 0.0
2018-Jun-14 00:59N 05°37' E 000°01'0 0.0
2018-Jun-14 00:29N 05°37' E 000°01'0 0.0
2018-Jun-13 23:59N 05°37' E 000°01'0 0.0
2018-Jun-13 23:29N 05°37' E 000°01'0 0.0
2018-Jun-13 22:59N 05°37' E 000°01'0 0.0
2018-Jun-13 22:29N 05°37' E 000°01'0 0.0
2018-Jun-13 21:59N 05°37' E 000°01'0 0.0
2018-Jun-13 21:29N 05°37' E 000°01'0 0.0
2018-Jun-13 20:59N 05°37' E 000°01'0 0.0
2018-Jun-13 20:29N 05°37' E 000°01'0 0.0
2018-Jun-13 19:59N 05°37' E 000°01'0 0.0
2018-Jun-13 19:29N 05°37' E 000°01'0 0.0
2018-Jun-13 18:59N 05°37' E 000°01'0 0.0
2018-Jun-13 18:29N 05°37' E 000°01'0 0.0
2018-Jun-13 17:59N 05°37' E 000°01'0 0.0
2018-Jun-13 17:29N 05°37' E 000°01'0 0.0
2018-Jun-13 16:59N 05°37' E 000°01'0 0.0
2018-Jun-13 16:29N 05°37' E 000°01'0 0.0
2018-Jun-13 15:59N 05°37' E 000°01'0 0.0
2018-Jun-13 15:29N 05°37' E 000°01'0 0.0
2018-Jun-13 14:59N 05°37' E 000°01'0 0.0
2018-Jun-13 14:29N 05°37' E 000°01'0 0.0
2018-Jun-13 13:59N 05°37' E 000°01'0 0.0
2018-Jun-13 13:29N 05°37' E 000°01'0 0.0
2018-Jun-13 12:59N 05°37' E 000°01'0 0.0
2018-Jun-13 12:29N 05°37' E 000°01'0 0.0
2018-Jun-13 11:59N 05°37' E 000°01'0 0.0
2018-Jun-13 11:29N 05°37' E 000°01'2 3.4
2018-Jun-13 11:00N 05°36' E 000°00'2 3.4
2018-Jun-13 10:30N 05°35' W 000°01'  
Track history (hours):
 
Tides and Currents Weather Stations Pressure Air Temp Water Temp Dewpoint Dewpoint Depression Visibility Wind Speed Wind Dir Waves Ship Positions

Asona

Last reported at 2018-Jun-16 15:06 UTC. Time now 2018-Jun-20 20:36 UTC.
Position N 05°25' E 000°02'.

Type: Fishing. MMSI: 627576000.

Date/timePositionNaut miles runAvg speedWind from/ knotsBaromVisibWave heightAir tempDewpointWater temp
2018-Jun-16 15:06N 05°25' E 000°02'0 3.4
2018-Jun-16 15:00N 05°25' E 000°03'2 3.5
2018-Jun-16 14:19N 05°26' E 000°05'1 3.4
2018-Jun-16 14:00N 05°27' E 000°05'1 2.1
2018-Jun-16 13:27N 05°28' E 000°06'6 8.1
2018-Jun-16 12:40N 05°33' E 000°03'2 8.7
2018-Jun-16 12:29N 05°35' E 000°03'2 5.3
2018-Jun-16 12:00N 05°37' E 000°01'0 0.0
2018-Jun-16 11:30N 05°37' E 000°01'0 0.0
2018-Jun-16 11:00N 05°37' E 000°01'0 0.0
2018-Jun-16 10:25N 05°37' E 000°01'0 0.0
2018-Jun-16 09:58N 05°37' E 000°01'0 0.0
2018-Jun-16 09:29N 05°37' E 000°01'0 0.0
2018-Jun-16 08:59N 05°37' E 000°01'0 0.0
2018-Jun-16 08:30N 05°37' E 000°01'0 0.0
2018-Jun-16 07:59N 05°37' E 000°01'0 0.0
2018-Jun-16 07:28N 05°37' E 000°01'0 0.0
2018-Jun-16 06:58N 05°37' E 000°01'0 0.0
2018-Jun-16 06:29N 05°37' E 000°01'0 0.0
2018-Jun-16 05:59N 05°37' E 000°01'0 0.0
2018-Jun-16 05:30N 05°37' E 000°01'0 0.0
2018-Jun-16 05:00N 05°37' E 000°01'0 0.0
2018-Jun-16 04:30N 05°37' E 000°01'0 0.0
2018-Jun-16 03:58N 05°37' E 000°01'0 0.0
2018-Jun-16 03:28N 05°37' E 000°01'0 0.0
2018-Jun-16 03:01N 05°37' E 000°01'0 0.0
2018-Jun-16 02:29N 05°37' E 000°01'0 0.0
2018-Jun-16 01:59N 05°37' E 000°01'0 0.0
2018-Jun-16 01:29N 05°37' E 000°01'0 0.0
2018-Jun-16 01:00N 05°37' E 000°01'0 0.0
2018-Jun-16 00:30N 05°37' E 000°01'0 0.0
2018-Jun-16 00:00N 05°37' E 000°01'0 0.0
2018-Jun-15 23:30N 05°37' E 000°01'0 0.0
2018-Jun-15 23:00N 05°37' E 000°01'0 0.0
2018-Jun-15 22:30N 05°37' E 000°01'0 0.0
2018-Jun-15 22:00N 05°37' E 000°01'0 0.0
2018-Jun-15 16:32N 05°37' E 000°01'0 0.0
2018-Jun-15 16:29N 05°37' E 000°01'0 0.0
2018-Jun-15 15:59N 05°37' E 000°01'0 0.0
2018-Jun-15 15:29N 05°37' E 000°01'0 0.0
2018-Jun-15 14:59N 05°37' E 000°01'0 0.0
2018-Jun-15 14:30N 05°37' E 000°01'0 0.0
2018-Jun-15 13:59N 05°37' E 000°01'0 0.0
2018-Jun-15 13:29N 05°37' E 000°01'0 0.0
2018-Jun-15 12:59N 05°37' E 000°01'0 0.0
2018-Jun-15 12:29N 05°37' E 000°01'0 0.0
2018-Jun-15 11:59N 05°37' E 000°01'0 0.0
2018-Jun-15 11:29N 05°37' E 000°01'0 0.0
2018-Jun-15 10:59N 05°37' E 000°01'0 0.0
2018-Jun-15 10:29N 05°37' E 000°01'0 0.0
2018-Jun-15 09:59N 05°37' E 000°01'0 0.0
2018-Jun-15 09:26N 05°37' E 000°01'0 0.0
2018-Jun-15 08:59N 05°37' E 000°01'0 0.0
2018-Jun-15 08:29N 05°37' E 000°01'0 0.0
2018-Jun-15 07:59N 05°37' E 000°01'0 0.0
2018-Jun-15 07:29N 05°37' E 000°01'0 0.0
2018-Jun-15 06:59N 05°37' E 000°01'0 0.0
2018-Jun-15 06:23N 05°37' E 000°01'0 0.0
2018-Jun-15 05:59N 05°37' E 000°01'0 0.0
2018-Jun-15 05:29N 05°37' E 000°01'0 0.0
2018-Jun-15 04:59N 05°37' E 000°01'0 0.0
2018-Jun-15 04:29N 05°37' E 000°01'0 0.0
2018-Jun-15 03:59N 05°37' E 000°01'0 0.0
2018-Jun-15 03:29N 05°37' E 000°01'0 0.0
2018-Jun-15 02:59N 05°37' E 000°01'0 0.0
2018-Jun-15 02:29N 05°37' E 000°01'0 0.0
2018-Jun-15 01:59N 05°37' E 000°01'0 0.0
2018-Jun-15 01:29N 05°37' E 000°01'0 0.0
2018-Jun-15 00:59N 05°37' E 000°01'0 0.0
2018-Jun-15 00:29N 05°37' E 000°01'0 0.0
2018-Jun-14 23:59N 05°37' E 000°01'0 0.0
2018-Jun-14 23:29N 05°37' E 000°01'0 0.0
2018-Jun-14 22:59N 05°37' E 000°01'0 0.0
2018-Jun-14 22:29N 05°37' E 000°01'0 0.0
2018-Jun-14 21:59N 05°37' E 000°01'0 0.0
2018-Jun-14 21:29N 05°37' E 000°01'0 0.0
2018-Jun-14 20:59N 05°37' E 000°01'0 0.0
2018-Jun-14 20:29N 05°37' E 000°01'0 0.0
2018-Jun-14 19:59N 05°37' E 000°01'0 0.0
2018-Jun-14 19:29N 05°37' E 000°01'0 0.0
2018-Jun-14 18:59N 05°37' E 000°01'0 0.0
2018-Jun-14 18:29N 05°37' E 000°01'0 0.0
2018-Jun-14 17:59N 05°37' E 000°01'0 0.0
2018-Jun-14 17:29N 05°37' E 000°01'0 0.0
2018-Jun-14 16:59N 05°37' E 000°01'0 0.0
2018-Jun-14 16:29N 05°37' E 000°01'0 0.0
2018-Jun-14 15:59N 05°37' E 000°01'0 0.0
2018-Jun-14 15:29N 05°37' E 000°01'0 0.0
2018-Jun-14 14:59N 05°37' E 000°01'0 0.0
2018-Jun-14 14:29N 05°37' E 000°01'0 0.0
2018-Jun-14 13:59N 05°37' E 000°01'0 0.0
2018-Jun-14 13:29N 05°37' E 000°01'0 0.0
2018-Jun-14 12:59N 05°37' E 000°01'0 0.0
2018-Jun-14 12:29N 05°37' E 000°01'0 0.0
2018-Jun-14 11:59N 05°37' E 000°01'0 0.0
2018-Jun-14 11:29N 05°37' E 000°01'0 0.0
2018-Jun-14 10:59N 05°37' E 000°01'0 0.0
2018-Jun-14 10:29N 05°37' E 000°01'0 0.0
2018-Jun-14 09:59N 05°37' E 000°01'0 0.0
2018-Jun-14 09:29N 05°37' E 000°01'0 0.0
2018-Jun-14 08:59N 05°37' E 000°01'0 0.0
2018-Jun-14 08:29N 05°37' E 000°01'0 0.0
2018-Jun-14 07:59N 05°37' E 000°01'0 0.0
2018-Jun-14 07:29N 05°37' E 000°01'0 0.0
2018-Jun-14 06:59N 05°37' E 000°01'0 0.0
2018-Jun-14 06:29N 05°37' E 000°01'0 0.0
2018-Jun-14 05:59N 05°37' E 000°01'0 0.0
2018-Jun-14 05:29N 05°37' E 000°01'0 0.0
2018-Jun-14 04:59N 05°37' E 000°01'0 0.0
2018-Jun-14 04:29N 05°37' E 000°01'0 0.0
2018-Jun-14 03:59N 05°37' E 000°01'0 0.0
2018-Jun-14 03:29N 05°37' E 000°01'0 0.0
2018-Jun-14 02:59N 05°37' E 000°01'0 0.0
2018-Jun-14 02:29N 05°37' E 000°01'0 0.0
2018-Jun-14 01:59N 05°37' E 000°01'0 0.0
2018-Jun-14 01:29N 05°37' E 000°01'0 0.0
2018-Jun-14 00:59N 05°37' E 000°01'0 0.0
2018-Jun-14 00:29N 05°37' E 000°01'0 0.0
2018-Jun-13 23:59N 05°37' E 000°01'0 0.0
2018-Jun-13 23:29N 05°37' E 000°01'0 0.0
2018-Jun-13 22:59N 05°37' E 000°01'0 0.0
2018-Jun-13 22:29N 05°37' E 000°01'0 0.0
2018-Jun-13 21:59N 05°37' E 000°01'0 0.0
2018-Jun-13 21:29N 05°37' E 000°01'0 0.0
2018-Jun-13 20:59N 05°37' E 000°01'0 0.0
2018-Jun-13 20:29N 05°37' E 000°01'0 0.0
2018-Jun-13 19:59N 05°37' E 000°01'0 0.0
2018-Jun-13 19:29N 05°37' E 000°01'0 0.0
2018-Jun-13 18:59N 05°37' E 000°01'0 0.0
2018-Jun-13 18:29N 05°37' E 000°01'0 0.0
2018-Jun-13 17:59N 05°37' E 000°01'0 0.0
2018-Jun-13 17:29N 05°37' E 000°01'0 0.0
2018-Jun-13 16:59N 05°37' E 000°01'0 0.0
2018-Jun-13 16:29N 05°37' E 000°01'0 0.0
2018-Jun-13 15:59N 05°37' E 000°01'0 0.0
2018-Jun-13 15:29N 05°37' E 000°01'0 0.0
2018-Jun-13 14:59N 05°37' E 000°01'0 0.0
2018-Jun-13 14:29N 05°37' E 000°01'0 0.0
2018-Jun-13 13:59N 05°37' E 000°01'0 0.0
2018-Jun-13 13:29N 05°37' E 000°01'0 0.0
2018-Jun-13 12:59N 05°37' E 000°01'0 0.0
2018-Jun-13 12:29N 05°37' E 000°01'0 0.0
2018-Jun-13 11:59N 05°37' E 000°01'0 0.0
2018-Jun-13 11:29N 05°37' E 000°01'2 3.4
2018-Jun-13 11:00N 05°36' E 000°00'2 3.4
2018-Jun-13 10:30N 05°35' W 000°01'  

Dump ship's entire track history